sensor_id;sensor_type;location;lat;lon;timestamp;P1;durP1;ratioP1;P2;durP2;ratioP2
57111;SDS011;42992;49.084;19.300;2022-09-19T00:00:24;4.22;;;2.50;;
57111;SDS011;42992;49.084;19.300;2022-09-19T00:02:49;5.10;;;2.60;;
57111;SDS011;42992;49.084;19.300;2022-09-19T00:05:14;5.68;;;2.45;;
57111;SDS011;42992;49.084;19.300;2022-09-19T00:07:40;8.85;;;2.60;;
57111;SDS011;42992;49.084;19.300;2022-09-19T00:10:05;7.82;;;3.00;;
57111;SDS011;42992;49.084;19.300;2022-09-19T00:12:31;4.72;;;2.70;;
57111;SDS011;42992;49.084;19.300;2022-09-19T00:14:57;5.32;;;2.85;;
57111;SDS011;42992;49.084;19.300;2022-09-19T00:17:22;5.90;;;2.67;;
57111;SDS011;42992;49.084;19.300;2022-09-19T00:19:48;5.88;;;3.03;;
57111;SDS011;42992;49.084;19.300;2022-09-19T00:22:13;7.22;;;3.05;;
57111;SDS011;42992;49.084;19.300;2022-09-19T00:24:39;5.30;;;2.85;;
57111;SDS011;42992;49.084;19.300;2022-09-19T00:27:20;3.97;;;2.47;;
57111;SDS011;42992;49.084;19.300;2022-09-19T00:29:46;4.22;;;2.20;;
57111;SDS011;42992;49.084;19.300;2022-09-19T00:32:12;6.95;;;2.05;;
57111;SDS011;42992;49.084;19.300;2022-09-19T00:34:40;8.48;;;2.70;;
57111;SDS011;42992;49.084;19.300;2022-09-19T00:37:06;3.33;;;1.98;;
57111;SDS011;42992;49.084;19.300;2022-09-19T00:39:34;5.55;;;2.00;;
57111;SDS011;42992;49.084;19.300;2022-09-19T00:42:00;4.38;;;2.17;;
57111;SDS011;42992;49.084;19.300;2022-09-19T00:46:58;5.45;;;1.90;;
57111;SDS011;42992;49.084;19.300;2022-09-19T00:49:25;4.72;;;2.25;;
57111;SDS011;42992;49.084;19.300;2022-09-19T00:51:56;5.78;;;2.50;;
57111;SDS011;42992;49.084;19.300;2022-09-19T00:54:30;7.38;;;1.98;;
57111;SDS011;42992;49.084;19.300;2022-09-19T00:56:57;4.07;;;2.10;;
57111;SDS011;42992;49.084;19.300;2022-09-19T00:59:25;4.22;;;1.90;;
57111;SDS011;42992;49.084;19.300;2022-09-19T01:01:53;4.70;;;1.65;;
57111;SDS011;42992;49.084;19.300;2022-09-19T01:04:22;4.70;;;2.17;;
57111;SDS011;42992;49.084;19.300;2022-09-19T01:06:55;3.40;;;1.80;;
57111;SDS011;42992;49.084;19.300;2022-09-19T01:09:26;3.00;;;1.35;;
57111;SDS011;42992;49.084;19.300;2022-09-19T01:17:15;4.95;;;1.77;;
57111;SDS011;42992;49.084;19.300;2022-09-19T01:19:52;3.28;;;1.60;;
57111;SDS011;42992;49.084;19.300;2022-09-19T01:28:01;4.38;;;1.88;;
57111;SDS011;42992;49.084;19.300;2022-09-19T01:30:37;4.18;;;1.60;;
57111;SDS011;42992;49.084;19.300;2022-09-19T01:33:05;3.83;;;2.47;;
57111;SDS011;42992;49.084;19.300;2022-09-19T01:35:32;4.57;;;1.67;;
57111;SDS011;42992;49.084;19.300;2022-09-19T01:38:12;3.42;;;1.70;;
57111;SDS011;42992;49.084;19.300;2022-09-19T01:40:41;5.72;;;2.00;;
57111;SDS011;42992;49.084;19.300;2022-09-19T01:43:11;4.10;;;2.13;;
57111;SDS011;42992;49.084;19.300;2022-09-19T01:45:37;3.67;;;1.83;;
57111;SDS011;42992;49.084;19.300;2022-09-19T01:48:22;4.20;;;1.95;;
57111;SDS011;42992;49.084;19.300;2022-09-19T01:56:23;3.63;;;1.70;;
57111;SDS011;42992;49.084;19.300;2022-09-19T01:58:58;5.45;;;1.75;;
57111;SDS011;42992;49.084;19.300;2022-09-19T02:03:59;3.13;;;1.30;;
57111;SDS011;42992;49.084;19.300;2022-09-19T02:06:38;4.03;;;1.60;;
57111;SDS011;42992;49.084;19.300;2022-09-19T02:12:12;2.97;;;1.27;;
57111;SDS011;42992;49.084;19.300;2022-09-19T02:14:42;2.55;;;1.40;;
57111;SDS011;42992;49.084;19.300;2022-09-19T02:17:15;3.20;;;1.40;;
57111;SDS011;42992;49.084;19.300;2022-09-19T02:19:44;4.55;;;1.40;;
57111;SDS011;42992;49.084;19.300;2022-09-19T02:22:16;3.90;;;1.45;;
57111;SDS011;42992;49.084;19.300;2022-09-19T02:24:45;3.70;;;1.30;;
57111;SDS011;42992;49.084;19.300;2022-09-19T02:27:15;2.17;;;1.00;;
57111;SDS011;42992;49.084;19.300;2022-09-19T02:29:47;3.42;;;1.48;;
57111;SDS011;42992;49.084;19.300;2022-09-19T02:32:14;2.42;;;1.10;;
57111;SDS011;42992;49.084;19.300;2022-09-19T02:34:42;2.40;;;1.25;;
57111;SDS011;42992;49.084;19.300;2022-09-19T02:37:10;3.83;;;1.10;;
57111;SDS011;42992;49.084;19.300;2022-09-19T02:44:41;3.33;;;1.00;;
57111;SDS011;42992;49.084;19.300;2022-09-19T02:49:47;2.42;;;1.30;;
57111;SDS011;42992;49.084;19.300;2022-09-19T02:52:19;4.63;;;1.00;;
57111;SDS011;42992;49.084;19.300;2022-09-19T02:54:48;3.08;;;1.25;;
57111;SDS011;42992;49.084;19.300;2022-09-19T02:57:15;4.57;;;1.50;;
57111;SDS011;42992;49.084;19.300;2022-09-19T02:59:43;3.78;;;1.20;;
57111;SDS011;42992;49.084;19.300;2022-09-19T03:02:22;5.28;;;1.52;;
57111;SDS011;42992;49.084;19.300;2022-09-19T03:04:52;4.63;;;1.40;;
57111;SDS011;42992;49.084;19.300;2022-09-19T03:07:24;2.60;;;1.20;;
57111;SDS011;42992;49.084;19.300;2022-09-19T03:10:15;3.60;;;1.58;;
57111;SDS011;42992;49.084;19.300;2022-09-19T03:15:06;4.30;;;1.75;;
57111;SDS011;42992;49.084;19.300;2022-09-19T03:17:37;1.70;;;0.70;;
57111;SDS011;42992;49.084;19.300;2022-09-19T03:20:06;4.75;;;1.10;;
57111;SDS011;42992;49.084;19.300;2022-09-19T03:22:32;2.35;;;0.80;;
57111;SDS011;42992;49.084;19.300;2022-09-19T03:24:59;1.95;;;0.70;;
57111;SDS011;42992;49.084;19.300;2022-09-19T03:30:33;3.53;;;0.60;;
57111;SDS011;42992;49.084;19.300;2022-09-19T03:33:01;2.35;;;0.70;;
57111;SDS011;42992;49.084;19.300;2022-09-19T03:35:46;1.23;;;0.52;;
57111;SDS011;42992;49.084;19.300;2022-09-19T03:38:16;0.93;;;0.50;;
57111;SDS011;42992;49.084;19.300;2022-09-19T03:40:41;1.05;;;0.30;;
57111;SDS011;42992;49.084;19.300;2022-09-19T03:43:06;0.43;;;0.20;;
57111;SDS011;42992;49.084;19.300;2022-09-19T03:45:32;1.17;;;0.35;;
57111;SDS011;42992;49.084;19.300;2022-09-19T03:47:57;0.50;;;0.30;;
57111;SDS011;42992;49.084;19.300;2022-09-19T03:50:23;0.20;;;0.20;;
57111;SDS011;42992;49.084;19.300;2022-09-19T03:52:48;0.43;;;0.30;;
57111;SDS011;42992;49.084;19.300;2022-09-19T03:55:14;1.38;;;0.28;;
57111;SDS011;42992;49.084;19.300;2022-09-19T03:57:40;0.30;;;0.20;;
57111;SDS011;42992;49.084;19.300;2022-09-19T04:00:05;0.40;;;0.20;;
57111;SDS011;42992;49.084;19.300;2022-09-19T04:02:31;1.25;;;0.60;;
57111;SDS011;42992;49.084;19.300;2022-09-19T04:07:32;0.55;;;0.20;;
57111;SDS011;42992;49.084;19.300;2022-09-19T04:09:57;0.63;;;0.30;;
57111;SDS011;42992;49.084;19.300;2022-09-19T04:12:23;0.55;;;0.30;;
57111;SDS011;42992;49.084;19.300;2022-09-19T04:14:49;0.63;;;0.30;;
57111;SDS011;42992;49.084;19.300;2022-09-19T04:17:14;2.05;;;0.30;;
57111;SDS011;42992;49.084;19.300;2022-09-19T04:19:42;0.40;;;0.25;;
57111;SDS011;42992;49.084;19.300;2022-09-19T04:22:09;0.65;;;0.30;;
57111;SDS011;42992;49.084;19.300;2022-09-19T04:24:37;0.80;;;0.30;;
57111;SDS011;42992;49.084;19.300;2022-09-19T04:27:05;0.93;;;0.30;;
57111;SDS011;42992;49.084;19.300;2022-09-19T04:29:36;0.38;;;0.25;;
57111;SDS011;42992;49.084;19.300;2022-09-19T04:37:24;1.00;;;0.40;;
57111;SDS011;42992;49.084;19.300;2022-09-19T04:39:49;0.88;;;0.65;;
57111;SDS011;42992;49.084;19.300;2022-09-19T04:42:15;0.93;;;0.40;;
57111;SDS011;42992;49.084;19.300;2022-09-19T04:44:41;1.02;;;0.40;;
57111;SDS011;42992;49.084;19.300;2022-09-19T04:47:06;1.33;;;0.40;;
57111;SDS011;42992;49.084;19.300;2022-09-19T04:49:32;2.38;;;0.80;;
57111;SDS011;42992;49.084;19.300;2022-09-19T04:52:07;1.17;;;0.60;;
57111;SDS011;42992;49.084;19.300;2022-09-19T04:54:34;1.55;;;0.70;;
57111;SDS011;42992;49.084;19.300;2022-09-19T04:57:02;2.00;;;0.80;;
57111;SDS011;42992;49.084;19.300;2022-09-19T04:59:28;3.20;;;1.00;;
57111;SDS011;42992;49.084;19.300;2022-09-19T05:01:53;2.53;;;1.13;;
57111;SDS011;42992;49.084;19.300;2022-09-19T05:15:35;3.50;;;0.60;;
57111;SDS011;42992;49.084;19.300;2022-09-19T05:18:07;1.67;;;0.63;;
57111;SDS011;42992;49.084;19.300;2022-09-19T05:20:35;2.08;;;0.70;;
57111;SDS011;42992;49.084;19.300;2022-09-19T05:23:02;2.92;;;0.70;;
57111;SDS011;42992;49.084;19.300;2022-09-19T05:25:29;2.35;;;0.60;;
57111;SDS011;42992;49.084;19.300;2022-09-19T05:27:58;1.67;;;0.70;;
57111;SDS011;42992;49.084;19.300;2022-09-19T05:30:29;2.45;;;0.70;;
57111;SDS011;42992;49.084;19.300;2022-09-19T05:32:55;2.15;;;0.60;;
57111;SDS011;42992;49.084;19.300;2022-09-19T05:35:21;2.40;;;0.98;;
57111;SDS011;42992;49.084;19.300;2022-09-19T05:37:51;3.67;;;1.35;;
57111;SDS011;42992;49.084;19.300;2022-09-19T05:40:27;6.70;;;1.00;;
57111;SDS011;42992;49.084;19.300;2022-09-19T05:42:52;2.60;;;1.10;;
57111;SDS011;42992;49.084;19.300;2022-09-19T05:45:26;5.57;;;1.63;;
57111;SDS011;42992;49.084;19.300;2022-09-19T05:47:58;3.83;;;1.20;;
57111;SDS011;42992;49.084;19.300;2022-09-19T05:50:28;7.55;;;2.30;;
57111;SDS011;42992;49.084;19.300;2022-09-19T05:52:56;3.50;;;1.45;;
57111;SDS011;42992;49.084;19.300;2022-09-19T05:55:43;4.07;;;1.67;;
57111;SDS011;42992;49.084;19.300;2022-09-19T05:58:09;3.03;;;1.20;;
57111;SDS011;42992;49.084;19.300;2022-09-19T06:00:35;4.75;;;1.25;;
57111;SDS011;42992;49.084;19.300;2022-09-19T06:03:05;6.18;;;1.40;;
57111;SDS011;42992;49.084;19.300;2022-09-19T06:05:36;3.28;;;1.05;;
57111;SDS011;42992;49.084;19.300;2022-09-19T06:08:02;4.28;;;1.67;;
57111;SDS011;42992;49.084;19.300;2022-09-19T06:10:32;4.75;;;1.27;;
57111;SDS011;42992;49.084;19.300;2022-09-19T06:12:57;2.60;;;1.30;;
57111;SDS011;42992;49.084;19.300;2022-09-19T06:15:26;6.35;;;1.38;;
57111;SDS011;42992;49.084;19.300;2022-09-19T06:17:55;2.95;;;1.10;;
57111;SDS011;42992;49.084;19.300;2022-09-19T06:20:20;2.60;;;1.10;;
57111;SDS011;42992;49.084;19.300;2022-09-19T06:22:48;3.38;;;1.25;;
57111;SDS011;42992;49.084;19.300;2022-09-19T06:25:15;2.63;;;1.00;;
57111;SDS011;42992;49.084;19.300;2022-09-19T06:27:40;3.08;;;1.20;;
57111;SDS011;42992;49.084;19.300;2022-09-19T06:30:11;3.90;;;1.50;;
57111;SDS011;42992;49.084;19.300;2022-09-19T06:32:39;3.25;;;1.58;;
57111;SDS011;42992;49.084;19.300;2022-09-19T06:35:05;4.68;;;2.13;;
57111;SDS011;42992;49.084;19.300;2022-09-19T06:37:30;6.47;;;3.70;;
57111;SDS011;42992;49.084;19.300;2022-09-19T06:39:57;4.53;;;2.22;;
57111;SDS011;42992;49.084;19.300;2022-09-19T06:42:22;3.58;;;1.60;;
57111;SDS011;42992;49.084;19.300;2022-09-19T06:44:50;3.60;;;1.40;;
57111;SDS011;42992;49.084;19.300;2022-09-19T06:47:16;3.28;;;1.40;;
57111;SDS011;42992;49.084;19.300;2022-09-19T06:49:41;3.15;;;1.30;;
57111;SDS011;42992;49.084;19.300;2022-09-19T06:52:07;3.47;;;1.20;;
57111;SDS011;42992;49.084;19.300;2022-09-19T06:54:32;2.25;;;0.90;;
57111;SDS011;42992;49.084;19.300;2022-09-19T06:56:59;2.72;;;1.23;;
57111;SDS011;42992;49.084;19.300;2022-09-19T06:59:25;3.53;;;1.40;;
57111;SDS011;42992;49.084;19.300;2022-09-19T07:01:50;3.63;;;1.58;;
57111;SDS011;42992;49.084;19.300;2022-09-19T07:04:18;3.35;;;1.50;;
57111;SDS011;42992;49.084;19.300;2022-09-19T07:06:46;3.72;;;1.75;;
57111;SDS011;42992;49.084;19.300;2022-09-19T07:09:11;4.45;;;2.20;;
57111;SDS011;42992;49.084;19.300;2022-09-19T07:11:37;4.57;;;1.70;;
57111;SDS011;42992;49.084;19.300;2022-09-19T07:14:05;4.13;;;1.33;;
57111;SDS011;42992;49.084;19.300;2022-09-19T07:16:31;4.40;;;1.90;;
57111;SDS011;42992;49.084;19.300;2022-09-19T07:18:56;2.83;;;1.10;;
57111;SDS011;42992;49.084;19.300;2022-09-19T07:21:22;4.45;;;1.48;;
57111;SDS011;42992;49.084;19.300;2022-09-19T07:23:47;3.38;;;1.65;;
57111;SDS011;42992;49.084;19.300;2022-09-19T07:26:13;4.88;;;1.30;;
57111;SDS011;42992;49.084;19.300;2022-09-19T07:28:41;4.47;;;1.50;;
57111;SDS011;42992;49.084;19.300;2022-09-19T07:31:07;2.92;;;1.20;;
57111;SDS011;42992;49.084;19.300;2022-09-19T07:36:23;2.78;;;1.13;;
57111;SDS011;42992;49.084;19.300;2022-09-19T07:38:51;1.95;;;1.00;;
57111;SDS011;42992;49.084;19.300;2022-09-19T07:41:19;1.50;;;0.70;;
57111;SDS011;42992;49.084;19.300;2022-09-19T07:43:44;1.88;;;0.90;;
57111;SDS011;42992;49.084;19.300;2022-09-19T07:46:31;2.03;;;0.88;;
57111;SDS011;42992;49.084;19.300;2022-09-19T07:48:57;1.77;;;0.80;;
57111;SDS011;42992;49.084;19.300;2022-09-19T07:51:23;1.08;;;0.50;;
57111;SDS011;42992;49.084;19.300;2022-09-19T07:53:48;1.88;;;0.80;;
57111;SDS011;42992;49.084;19.300;2022-09-19T07:56:24;2.00;;;0.80;;
57111;SDS011;42992;49.084;19.300;2022-09-19T07:58:51;1.50;;;0.60;;
57111;SDS011;42992;49.084;19.300;2022-09-19T08:01:17;1.23;;;0.60;;
57111;SDS011;42992;49.084;19.300;2022-09-19T08:03:43;1.50;;;0.57;;
57111;SDS011;42992;49.084;19.300;2022-09-19T08:06:09;0.88;;;0.40;;
57111;SDS011;42992;49.084;19.300;2022-09-19T08:08:35;1.90;;;0.60;;
57111;SDS011;42992;49.084;19.300;2022-09-19T08:11:00;1.20;;;0.43;;
57111;SDS011;42992;49.084;19.300;2022-09-19T08:13:26;1.77;;;0.60;;
57111;SDS011;42992;49.084;19.300;2022-09-19T08:15:52;1.77;;;0.60;;
57111;SDS011;42992;49.084;19.300;2022-09-19T08:18:18;1.88;;;0.60;;
57111;SDS011;42992;49.084;19.300;2022-09-19T08:20:44;3.42;;;1.00;;
57111;SDS011;42992;49.084;19.300;2022-09-19T08:23:10;1.90;;;0.80;;
57111;SDS011;42992;49.084;19.300;2022-09-19T08:25:37;2.25;;;0.70;;
57111;SDS011;42992;49.084;19.300;2022-09-19T08:28:08;2.20;;;0.85;;
57111;SDS011;42992;49.084;19.300;2022-09-19T08:30:33;1.23;;;0.65;;
57111;SDS011;42992;49.084;19.300;2022-09-19T08:32:59;1.95;;;0.80;;
57111;SDS011;42992;49.084;19.300;2022-09-19T08:35:25;2.30;;;1.00;;
57111;SDS011;42992;49.084;19.300;2022-09-19T08:37:55;2.63;;;0.85;;
57111;SDS011;42992;49.084;19.300;2022-09-19T08:40:25;1.65;;;0.50;;
57111;SDS011;42992;49.084;19.300;2022-09-19T09:13:39;2.78;;;0.70;;
57111;SDS011;42992;49.084;19.300;2022-09-19T10:21:08;2.33;;;0.60;;
57111;SDS011;42992;49.084;19.300;2022-09-19T10:23:34;2.67;;;0.85;;
57111;SDS011;42992;49.084;19.300;2022-09-19T10:26:00;1.30;;;0.50;;
57111;SDS011;42992;49.084;19.300;2022-09-19T10:28:35;2.08;;;0.80;;
57111;SDS011;42992;49.084;19.300;2022-09-19T10:31:02;2.75;;;0.70;;
57111;SDS011;42992;49.084;19.300;2022-09-19T10:35:56;1.30;;;0.60;;
57111;SDS011;42992;49.084;19.300;2022-09-19T10:38:52;2.80;;;0.70;;
57111;SDS011;42992;49.084;19.300;2022-09-19T10:41:19;1.02;;;0.40;;
57111;SDS011;42992;49.084;19.300;2022-09-19T10:43:51;1.10;;;0.50;;
57111;SDS011;42992;49.084;19.300;2022-09-19T10:46:33;0.70;;;0.30;;
57111;SDS011;42992;49.084;19.300;2022-09-19T10:49:12;3.13;;;0.65;;
57111;SDS011;42992;49.084;19.300;2022-09-19T10:51:42;2.00;;;0.70;;
57111;SDS011;42992;49.084;19.300;2022-09-19T10:54:11;2.15;;;0.68;;
57111;SDS011;42992;49.084;19.300;2022-09-19T10:56:40;1.55;;;0.60;;
57111;SDS011;42992;49.084;19.300;2022-09-19T11:01:48;0.65;;;0.30;;
57111;SDS011;42992;49.084;19.300;2022-09-19T11:04:28;1.88;;;0.77;;
57111;SDS011;42992;49.084;19.300;2022-09-19T11:09:35;0.65;;;0.30;;
57111;SDS011;42992;49.084;19.300;2022-09-19T11:12:13;0.63;;;0.38;;
57111;SDS011;42992;49.084;19.300;2022-09-19T11:14:40;0.60;;;0.40;;
57111;SDS011;42992;49.084;19.300;2022-09-19T11:22:48;1.45;;;0.60;;
57111;SDS011;42992;49.084;19.300;2022-09-19T11:25:30;1.73;;;0.80;;
57111;SDS011;42992;49.084;19.300;2022-09-19T11:28:21;2.20;;;0.90;;
57111;SDS011;42992;49.084;19.300;2022-09-19T11:35:53;0.57;;;0.40;;
57111;SDS011;42992;49.084;19.300;2022-09-19T11:38:25;1.40;;;0.57;;
57111;SDS011;42992;49.084;19.300;2022-09-19T11:41:02;2.22;;;0.70;;
57111;SDS011;42992;49.084;19.300;2022-09-19T11:46:27;2.35;;;0.65;;
57111;SDS011;42992;49.084;19.300;2022-09-19T11:49:10;1.10;;;0.60;;
57111;SDS011;42992;49.084;19.300;2022-09-19T11:54:28;0.93;;;0.50;;
57111;SDS011;42992;49.084;19.300;2022-09-19T12:10:01;1.73;;;0.70;;
57111;SDS011;42992;49.084;19.300;2022-09-19T12:12:29;3.60;;;0.93;;
57111;SDS011;42992;49.084;19.300;2022-09-19T12:15:14;0.70;;;0.43;;
57111;SDS011;42992;49.084;19.300;2022-09-19T12:17:40;1.55;;;0.60;;
57111;SDS011;42992;49.084;19.300;2022-09-19T12:22:46;1.95;;;0.75;;
57111;SDS011;42992;49.084;19.300;2022-09-19T12:25:15;2.00;;;0.63;;
57111;SDS011;42992;49.084;19.300;2022-09-19T12:27:58;1.27;;;0.53;;
57111;SDS011;42992;49.084;19.300;2022-09-19T12:30:25;1.67;;;0.70;;
57111;SDS011;42992;49.084;19.300;2022-09-19T12:33:00;1.15;;;0.70;;
57111;SDS011;42992;49.084;19.300;2022-09-19T12:40:43;1.00;;;0.55;;
57111;SDS011;42992;49.084;19.300;2022-09-19T12:43:35;1.25;;;0.52;;
57111;SDS011;42992;49.084;19.300;2022-09-19T12:51:14;0.70;;;0.43;;
57111;SDS011;42992;49.084;19.300;2022-09-19T12:53:47;2.30;;;0.40;;
57111;SDS011;42992;49.084;19.300;2022-09-19T12:56:16;0.75;;;0.45;;
57111;SDS011;42992;49.084;19.300;2022-09-19T13:01:24;1.15;;;0.50;;
57111;SDS011;42992;49.084;19.300;2022-09-19T13:06:46;0.93;;;0.50;;
57111;SDS011;42992;49.084;19.300;2022-09-19T13:09:16;0.73;;;0.38;;
57111;SDS011;42992;49.084;19.300;2022-09-19T13:16:55;0.82;;;0.50;;
57111;SDS011;42992;49.084;19.300;2022-09-19T13:19:40;1.10;;;0.43;;
57111;SDS011;42992;49.084;19.300;2022-09-19T13:22:25;1.08;;;0.50;;
57111;SDS011;42992;49.084;19.300;2022-09-19T13:25:16;1.92;;;0.80;;
57111;SDS011;42992;49.084;19.300;2022-09-19T13:27:43;0.50;;;0.35;;
57111;SDS011;42992;49.084;19.300;2022-09-19T13:32:54;1.25;;;0.57;;
57111;SDS011;42992;49.084;19.300;2022-09-19T13:35:20;3.38;;;0.85;;
57111;SDS011;42992;49.084;19.300;2022-09-19T13:37:49;2.63;;;1.33;;
57111;SDS011;42992;49.084;19.300;2022-09-19T13:40:29;2.70;;;1.00;;
57111;SDS011;42992;49.084;19.300;2022-09-19T13:43:16;2.15;;;0.90;;
57111;SDS011;42992;49.084;19.300;2022-09-19T13:45:49;1.50;;;0.80;;
57111;SDS011;42992;49.084;19.300;2022-09-19T13:48:30;2.13;;;0.90;;
57111;SDS011;42992;49.084;19.300;2022-09-19T13:51:19;3.88;;;1.30;;
57111;SDS011;42992;49.084;19.300;2022-09-19T13:56:37;4.53;;;1.70;;
57111;SDS011;42992;49.084;19.300;2022-09-19T13:59:15;4.13;;;1.17;;
57111;SDS011;42992;49.084;19.300;2022-09-19T14:01:59;3.60;;;1.02;;
57111;SDS011;42992;49.084;19.300;2022-09-19T14:04:50;2.75;;;0.98;;
57111;SDS011;42992;49.084;19.300;2022-09-19T14:09:58;2.30;;;0.82;;
57111;SDS011;42992;49.084;19.300;2022-09-19T14:18:02;2.90;;;1.40;;
57111;SDS011;42992;49.084;19.300;2022-09-19T14:20:53;5.70;;;3.00;;
57111;SDS011;42992;49.084;19.300;2022-09-19T14:25:56;4.70;;;1.90;;
57111;SDS011;42992;49.084;19.300;2022-09-19T14:28:36;3.75;;;1.77;;
57111;SDS011;42992;49.084;19.300;2022-09-19T14:31:22;3.90;;;1.73;;
57111;SDS011;42992;49.084;19.300;2022-09-19T14:33:55;2.50;;;1.33;;
57111;SDS011;42992;49.084;19.300;2022-09-19T14:46:52;10.03;;;4.03;;
57111;SDS011;42992;49.084;19.300;2022-09-19T14:49:22;5.82;;;3.33;;
57111;SDS011;42992;49.084;19.300;2022-09-19T14:56:56;16.27;;;8.07;;
57111;SDS011;42992;49.084;19.300;2022-09-19T14:59:21;13.95;;;7.28;;
57111;SDS011;42992;49.084;19.300;2022-09-19T15:01:47;8.77;;;4.57;;
57111;SDS011;42992;49.084;19.300;2022-09-19T15:04:16;5.50;;;2.30;;
57111;SDS011;42992;49.084;19.300;2022-09-19T15:06:48;5.45;;;2.20;;
57111;SDS011;42992;49.084;19.300;2022-09-19T15:09:20;3.80;;;1.60;;
57111;SDS011;42992;49.084;19.300;2022-09-19T15:11:47;5.38;;;2.47;;
57111;SDS011;42992;49.084;19.300;2022-09-19T15:32:17;4.88;;;2.33;;
57111;SDS011;42992;49.084;19.300;2022-09-19T15:34:51;10.75;;;6.20;;
57111;SDS011;42992;49.084;19.300;2022-09-19T15:37:17;8.10;;;3.65;;
57111;SDS011;42992;49.084;19.300;2022-09-19T15:39:45;5.40;;;2.58;;
57111;SDS011;42992;49.084;19.300;2022-09-19T15:42:11;4.25;;;1.95;;
57111;SDS011;42992;49.084;19.300;2022-09-19T15:44:37;5.25;;;2.22;;
57111;SDS011;42992;49.084;19.300;2022-09-19T15:49:29;3.00;;;1.60;;
57111;SDS011;42992;49.084;19.300;2022-09-19T15:51:58;3.58;;;1.55;;
57111;SDS011;42992;49.084;19.300;2022-09-19T15:54:28;4.65;;;1.90;;
57111;SDS011;42992;49.084;19.300;2022-09-19T15:56:57;10.13;;;3.25;;
57111;SDS011;42992;49.084;19.300;2022-09-19T15:59:24;6.47;;;3.92;;
57111;SDS011;42992;49.084;19.300;2022-09-19T16:02:00;7.90;;;4.72;;
57111;SDS011;42992;49.084;19.300;2022-09-19T16:04:33;6.70;;;4.25;;
57111;SDS011;42992;49.084;19.300;2022-09-19T16:06:59;7.07;;;4.15;;
57111;SDS011;42992;49.084;19.300;2022-09-19T16:09:45;5.47;;;2.80;;
57111;SDS011;42992;49.084;19.300;2022-09-19T16:14:55;4.90;;;1.05;;
57111;SDS011;42992;49.084;19.300;2022-09-19T16:17:23;2.78;;;0.90;;
57111;SDS011;42992;49.084;19.300;2022-09-19T16:19:52;1.98;;;0.82;;
57111;SDS011;42992;49.084;19.300;2022-09-19T16:27:26;3.38;;;1.60;;
57111;SDS011;42992;49.084;19.300;2022-09-19T16:29:53;4.13;;;1.17;;
57111;SDS011;42992;49.084;19.300;2022-09-19T16:32:19;3.60;;;1.55;;
57111;SDS011;42992;49.084;19.300;2022-09-19T16:34:51;4.15;;;1.73;;
57111;SDS011;42992;49.084;19.300;2022-09-19T16:39:50;6.18;;;3.03;;
57111;SDS011;42992;49.084;19.300;2022-09-19T16:44:46;7.47;;;2.97;;
57111;SDS011;42992;49.084;19.300;2022-09-19T16:47:17;8.45;;;4.00;;
57111;SDS011;42992;49.084;19.300;2022-09-19T16:49:43;8.35;;;5.07;;
57111;SDS011;42992;49.084;19.300;2022-09-19T16:52:17;9.10;;;5.35;;
57111;SDS011;42992;49.084;19.300;2022-09-19T17:01:02;6.63;;;3.25;;
57111;SDS011;42992;49.084;19.300;2022-09-19T17:03:30;6.43;;;3.88;;
57111;SDS011;42992;49.084;19.300;2022-09-19T17:05:59;10.02;;;6.65;;
57111;SDS011;42992;49.084;19.300;2022-09-19T17:08:24;19.58;;;10.00;;
57111;SDS011;42992;49.084;19.300;2022-09-19T17:10:52;9.68;;;5.95;;
57111;SDS011;42992;49.084;19.300;2022-09-19T17:13:19;8.10;;;4.82;;
57111;SDS011;42992;49.084;19.300;2022-09-19T17:18:30;8.73;;;5.53;;
57111;SDS011;42992;49.084;19.300;2022-09-19T17:21:04;10.70;;;6.80;;
57111;SDS011;42992;49.084;19.300;2022-09-19T17:23:31;10.38;;;7.13;;
57111;SDS011;42992;49.084;19.300;2022-09-19T17:25:56;6.40;;;3.95;;
57111;SDS011;42992;49.084;19.300;2022-09-19T17:28:23;5.68;;;3.38;;
57111;SDS011;42992;49.084;19.300;2022-09-19T17:30:50;6.35;;;3.85;;
57111;SDS011;42992;49.084;19.300;2022-09-19T17:33:16;5.30;;;3.17;;
57111;SDS011;42992;49.084;19.300;2022-09-19T17:35:42;9.30;;;5.15;;
57111;SDS011;42992;49.084;19.300;2022-09-19T17:38:08;7.88;;;5.00;;
57111;SDS011;42992;49.084;19.300;2022-09-19T17:40:34;8.13;;;4.75;;
57111;SDS011;42992;49.084;19.300;2022-09-19T17:43:04;7.32;;;4.53;;
57111;SDS011;42992;49.084;19.300;2022-09-19T17:45:31;7.60;;;4.45;;
57111;SDS011;42992;49.084;19.300;2022-09-19T17:47:58;5.22;;;3.13;;
57111;SDS011;42992;49.084;19.300;2022-09-19T17:50:24;6.20;;;3.40;;
57111;SDS011;42992;49.084;19.300;2022-09-19T17:52:51;5.57;;;2.92;;
57111;SDS011;42992;49.084;19.300;2022-09-19T17:55:17;5.07;;;2.53;;
57111;SDS011;42992;49.084;19.300;2022-09-19T17:57:47;6.90;;;3.28;;
57111;SDS011;42992;49.084;19.300;2022-09-19T18:00:13;6.45;;;3.53;;
57111;SDS011;42992;49.084;19.300;2022-09-19T18:02:39;6.03;;;3.00;;
57111;SDS011;42992;49.084;19.300;2022-09-19T18:05:23;6.85;;;3.17;;
57111;SDS011;42992;49.084;19.300;2022-09-19T18:07:49;5.60;;;3.17;;
57111;SDS011;42992;49.084;19.300;2022-09-19T18:10:22;5.30;;;2.60;;
57111;SDS011;42992;49.084;19.300;2022-09-19T18:12:49;4.32;;;2.33;;
57111;SDS011;42992;49.084;19.300;2022-09-19T18:15:15;4.65;;;2.78;;
57111;SDS011;42992;49.084;19.300;2022-09-19T18:17:40;4.70;;;2.60;;
57111;SDS011;42992;49.084;19.300;2022-09-19T18:20:06;5.15;;;2.75;;
57111;SDS011;42992;49.084;19.300;2022-09-19T18:22:31;5.45;;;2.90;;
57111;SDS011;42992;49.084;19.300;2022-09-19T18:24:58;5.30;;;3.35;;
57111;SDS011;42992;49.084;19.300;2022-09-19T18:27:31;5.15;;;3.13;;
57111;SDS011;42992;49.084;19.300;2022-09-19T18:29:56;7.35;;;4.35;;
57111;SDS011;42992;49.084;19.300;2022-09-19T18:32:22;5.82;;;3.60;;
57111;SDS011;42992;49.084;19.300;2022-09-19T18:34:47;6.20;;;4.22;;
57111;SDS011;42992;49.084;19.300;2022-09-19T18:37:13;8.23;;;4.13;;
57111;SDS011;42992;49.084;19.300;2022-09-19T18:39:39;7.18;;;4.10;;
57111;SDS011;42992;49.084;19.300;2022-09-19T18:42:04;6.93;;;3.83;;
57111;SDS011;42992;49.084;19.300;2022-09-19T18:44:30;8.73;;;4.28;;
57111;SDS011;42992;49.084;19.300;2022-09-19T18:46:55;7.22;;;4.32;;
57111;SDS011;42992;49.084;19.300;2022-09-19T18:49:20;7.25;;;4.65;;
57111;SDS011;42992;49.084;19.300;2022-09-19T18:51:48;7.63;;;4.75;;
57111;SDS011;42992;49.084;19.300;2022-09-19T18:54:16;6.57;;;3.92;;
57111;SDS011;42992;49.084;19.300;2022-09-19T18:56:43;6.40;;;4.05;;
57111;SDS011;42992;49.084;19.300;2022-09-19T18:59:08;7.03;;;3.72;;
57111;SDS011;42992;49.084;19.300;2022-09-19T19:01:34;6.35;;;3.20;;
57111;SDS011;42992;49.084;19.300;2022-09-19T19:04:00;5.03;;;3.08;;
57111;SDS011;42992;49.084;19.300;2022-09-19T19:06:26;6.22;;;3.50;;
57111;SDS011;42992;49.084;19.300;2022-09-19T19:08:52;8.65;;;4.25;;
57111;SDS011;42992;49.084;19.300;2022-09-19T19:11:19;6.90;;;3.45;;
57111;SDS011;42992;49.084;19.300;2022-09-19T19:13:44;5.65;;;3.25;;
57111;SDS011;42992;49.084;19.300;2022-09-19T19:16:13;9.27;;;3.70;;
57111;SDS011;42992;49.084;19.300;2022-09-19T19:18:40;7.40;;;3.50;;
57111;SDS011;42992;49.084;19.300;2022-09-19T19:21:06;6.10;;;3.20;;
57111;SDS011;42992;49.084;19.300;2022-09-19T19:23:32;5.95;;;3.38;;
57111;SDS011;42992;49.084;19.300;2022-09-19T19:25:58;7.45;;;4.90;;
57111;SDS011;42992;49.084;19.300;2022-09-19T19:28:24;6.82;;;5.13;;
57111;SDS011;42992;49.084;19.300;2022-09-19T19:30:50;8.13;;;5.40;;
57111;SDS011;42992;49.084;19.300;2022-09-19T19:33:23;6.47;;;5.07;;
57111;SDS011;42992;49.084;19.300;2022-09-19T19:38:22;9.85;;;7.72;;